createdAt,value
2018-11-05T00:00:12.833Z,13.44574
2018-11-05T00:00:33.501Z,13.44574
2018-11-05T00:00:53.046Z,13.435669
2018-11-05T00:01:13.621Z,13.44574
2018-11-05T00:01:34.536Z,13.44574
2018-11-05T00:01:54.141Z,13.435669
2018-11-05T00:02:13.806Z,13.455811
2018-11-05T00:02:33.460Z,13.435669
2018-11-05T00:02:53.114Z,13.455811
2018-11-05T00:03:12.797Z,13.455811
2018-11-05T00:03:32.558Z,13.455811
2018-11-05T00:03:52.134Z,13.506165
2018-11-05T00:04:11.764Z,13.486023
2018-11-05T00:04:31.386Z,13.486023
2018-11-05T00:04:50.997Z,13.455811
2018-11-05T00:05:10.553Z,13.455811
2018-11-05T00:05:31.138Z,13.486023
2018-11-05T00:05:50.787Z,13.475952
2018-11-05T00:06:10.619Z,13.44574
2018-11-05T00:06:30.169Z,13.435669
2018-11-05T00:06:49.717Z,13.435669
2018-11-05T00:07:10.342Z,13.435669
2018-11-05T00:07:29.959Z,13.415527
2018-11-05T00:07:49.534Z,13.415527
2018-11-05T00:08:09.244Z,13.415527
2018-11-05T00:08:28.914Z,13.44574
2018-11-05T00:08:48.519Z,13.415527
2018-11-05T00:09:08.068Z,13.435669
2018-11-05T00:09:28.097Z,13.435669
2018-11-05T00:09:49.074Z,13.475952
2018-11-05T00:10:08.634Z,13.44574
2018-11-05T00:10:28.444Z,13.44574
2018-11-05T00:10:49.081Z,13.435669
2018-11-05T00:11:08.758Z,13.455811
2018-11-05T00:11:28.332Z,13.455811
2018-11-05T00:11:47.882Z,13.455811
2018-11-05T00:12:07.416Z,13.44574
2018-11-05T00:12:27.992Z,13.475952
2018-11-05T00:12:47.696Z,13.455811
2018-11-05T00:13:07.393Z,13.455811
2018-11-05T00:13:27.036Z,13.44574
2018-11-05T00:13:46.601Z,13.455811
2018-11-05T00:14:07.155Z,13.475952
2018-11-05T00:14:26.801Z,13.506165
2018-11-05T00:14:46.394Z,13.506165
2018-11-05T00:15:05.933Z,13.516235
2018-11-05T00:15:25.559Z,13.536377
2018-11-05T00:15:45.209Z,13.546448
2018-11-05T00:16:04.934Z,13.516235
2018-11-05T00:16:24.508Z,13.536377
2018-11-05T00:16:44.141Z,13.516235
2018-11-05T00:17:03.702Z,13.536377
2018-11-05T00:17:24.229Z,13.486023
2018-11-05T00:17:43.773Z,13.506165
2018-11-05T00:18:03.400Z,13.536377
2018-11-05T00:18:23.063Z,13.516235
2018-11-05T00:18:42.581Z,13.506165
2018-11-05T00:19:02.207Z,13.506165
2018-11-05T00:19:21.841Z,13.506165
2018-11-05T00:19:41.410Z,13.506165
2018-11-05T00:20:00.949Z,13.516235
2018-11-05T00:20:20.661Z,13.516235
2018-11-05T00:20:41.280Z,13.516235
2018-11-05T00:21:00.909Z,13.506165
2018-11-05T00:21:21.609Z,13.475952
2018-11-05T00:21:41.218Z,13.475952
2018-11-05T00:22:00.805Z,13.475952
2018-11-05T00:22:20.542Z,13.486023
2018-11-05T00:22:40.216Z,13.486023
2018-11-05T00:22:59.767Z,13.516235
2018-11-05T00:23:19.411Z,13.536377
2018-11-05T00:23:38.961Z,13.566589
2018-11-05T00:23:58.622Z,13.546448
2018-11-05T00:24:18.358Z,13.566589
2018-11-05T00:24:38.017Z,13.536377
2018-11-05T00:24:57.566Z,13.546448
2018-11-05T00:25:17.242Z,13.546448
2018-11-05T00:25:37.083Z,13.596802
2018-11-05T00:25:56.691Z,13.596802
2018-11-05T00:26:16.295Z,13.586731
2018-11-05T00:26:35.949Z,13.586731
2018-11-05T00:26:55.814Z,13.616943
2018-11-05T00:27:15.638Z,13.596802
2018-11-05T00:27:36.397Z,13.596802
2018-11-05T00:27:56.020Z,13.566589
2018-11-05T00:28:15.683Z,13.566589
2018-11-05T00:28:35.360Z,13.566589
2018-11-05T00:28:54.962Z,13.586731
2018-11-05T00:29:14.557Z,13.596802
2018-11-05T00:29:34.157Z,13.586731
2018-11-05T00:29:54.236Z,13.586731
2018-11-05T00:30:15.251Z,13.566589
2018-11-05T00:30:35.172Z,13.616943
2018-11-05T00:30:54.745Z,13.627014
2018-11-05T00:31:14.324Z,13.616943
2018-11-05T00:31:33.950Z,13.616943
2018-11-05T00:31:53.458Z,13.596802
2018-11-05T00:32:13.036Z,13.566589
2018-11-05T00:32:32.582Z,13.596802
2018-11-05T00:32:52.197Z,13.566589
2018-11-05T00:33:11.833Z,13.546448
2018-11-05T00:33:31.419Z,13.546448
2018-11-05T00:33:51.044Z,13.536377
2018-11-05T00:34:10.598Z,13.546448
2018-11-05T00:34:30.285Z,13.516235
2018-11-05T00:34:49.950Z,13.486023
2018-11-05T00:35:09.589Z,13.506165
2018-11-05T00:35:29.178Z,13.475952
2018-11-05T00:35:48.753Z,13.486023
2018-11-05T00:36:08.565Z,13.506165
2018-11-05T00:36:28.227Z,13.506165
2018-11-05T00:36:47.812Z,13.506165
2018-11-05T00:37:07.395Z,13.486023
2018-11-05T00:37:27.058Z,13.486023
2018-11-05T00:37:46.718Z,13.506165
2018-11-05T00:38:07.696Z,13.536377
2018-11-05T00:38:27.393Z,13.486023
2018-11-05T00:38:47.049Z,13.486023
2018-11-05T00:39:06.682Z,13.506165
2018-11-05T00:39:27.755Z,13.486023
2018-11-05T00:39:48.325Z,13.486023
2018-11-05T00:40:07.885Z,13.506165
2018-11-05T00:40:27.515Z,13.486023
2018-11-05T00:40:47.129Z,13.486023
2018-11-05T00:41:06.789Z,13.486023
2018-11-05T00:41:26.459Z,13.455811
2018-11-05T00:41:46.565Z,13.455811
2018-11-05T00:42:06.308Z,13.506165
2018-11-05T00:42:25.945Z,13.506165
2018-11-05T00:42:45.516Z,13.516235
2018-11-05T00:43:05.373Z,13.486023
2018-11-05T00:43:26.045Z,13.506165
2018-11-05T00:43:45.685Z,13.475952
2018-11-05T00:44:05.487Z,13.455811
2018-11-05T00:44:25.094Z,13.44574
2018-11-05T00:44:45.655Z,13.44574
2018-11-05T00:45:05.197Z,13.435669
2018-11-05T00:45:24.904Z,13.44574
2018-11-05T00:45:44.725Z,13.435669
2018-11-05T00:46:04.312Z,13.455811
2018-11-05T00:46:23.816Z,13.475952
2018-11-05T00:46:43.418Z,13.475952
2018-11-05T00:47:03.039Z,13.44574
2018-11-05T00:47:22.783Z,13.435669
2018-11-05T00:47:43.330Z,13.405457
2018-11-05T00:48:02.852Z,13.415527
2018-11-05T00:48:22.401Z,13.435669
2018-11-05T00:48:43.020Z,13.415527
2018-11-05T00:49:02.556Z,13.415527
2018-11-05T00:49:22.093Z,13.415527
2018-11-05T00:49:41.672Z,13.405457
2018-11-05T00:50:01.292Z,13.415527
2018-11-05T00:50:21.911Z,13.415527
2018-11-05T00:50:42.402Z,13.435669
2018-11-05T00:51:03.337Z,13.435669
2018-11-05T00:51:22.933Z,13.435669
2018-11-05T00:51:42.592Z,13.405457
2018-11-05T00:52:03.163Z,13.405457
2018-11-05T00:52:22.827Z,13.405457
2018-11-05T00:52:42.525Z,13.405457
2018-11-05T00:53:03.180Z,13.375244
2018-11-05T00:53:22.730Z,13.375244
2018-11-05T00:53:42.331Z,13.355103
2018-11-05T00:54:01.915Z,13.355103
2018-11-05T00:54:21.696Z,13.304749
2018-11-05T00:54:41.261Z,13.304749
2018-11-05T00:55:00.915Z,13.32489
2018-11-05T00:55:20.524Z,13.385315
2018-11-05T00:55:40.065Z,13.385315
2018-11-05T00:56:00.022Z,13.375244
2018-11-05T00:56:19.547Z,13.385315
2018-11-05T00:56:40.438Z,13.405457
2018-11-05T00:57:00.125Z,13.415527
2018-11-05T00:57:19.830Z,13.385315
2018-11-05T00:57:39.515Z,13.415527
2018-11-05T00:57:59.079Z,13.405457
2018-11-05T00:58:18.893Z,13.385315
2018-11-05T00:58:38.689Z,13.385315
2018-11-05T00:58:58.423Z,13.405457
2018-11-05T00:59:19.014Z,13.415527
2018-11-05T00:59:38.540Z,13.405457
2018-11-05T00:59:58.221Z,13.435669
2018-11-05T01:00:17.826Z,13.44574
2018-11-05T01:00:37.394Z,13.435669
2018-11-05T01:00:57.288Z,13.435669
2018-11-05T01:01:17.085Z,13.44574
2018-11-05T01:01:37.109Z,13.435669
2018-11-05T01:01:56.641Z,13.435669
2018-11-05T01:02:16.346Z,13.455811
2018-11-05T01:02:36.119Z,13.455811
2018-11-05T01:02:55.932Z,13.475952
2018-11-05T01:03:15.482Z,13.44574
2018-11-05T01:03:35.010Z,13.44574
2018-11-05T01:03:54.741Z,13.44574
2018-11-05T01:04:14.493Z,13.435669
2018-11-05T01:04:34.097Z,13.44574
2018-11-05T01:04:53.683Z,13.415527
2018-11-05T01:05:13.265Z,13.44574
2018-11-05T01:05:32.945Z,13.44574
2018-11-05T01:05:52.606Z,13.455811
2018-11-05T01:06:12.323Z,13.455811
2018-11-05T01:06:31.845Z,13.506165
2018-11-05T01:06:51.413Z,13.506165
2018-11-05T01:07:11.011Z,13.516235
2018-11-05T01:07:30.627Z,13.516235
2018-11-05T01:07:50.212Z,13.506165
2018-11-05T01:08:09.774Z,13.516235
2018-11-05T01:08:29.369Z,13.516235
2018-11-05T01:08:48.925Z,13.486023
2018-11-05T01:09:08.477Z,13.516235
2018-11-05T01:09:28.385Z,13.506165
2018-11-05T01:09:47.940Z,13.536377
2018-11-05T01:10:07.744Z,13.516235
2018-11-05T01:10:28.286Z,13.546448
2018-11-05T01:10:48.891Z,13.516235
2018-11-05T01:11:08.477Z,13.506165
2018-11-05T01:11:27.987Z,13.516235
2018-11-05T01:11:47.540Z,13.516235
2018-11-05T01:12:07.152Z,13.506165
2018-11-05T01:12:26.714Z,13.516235
2018-11-05T01:12:47.703Z,13.536377
2018-11-05T01:13:10.460Z,13.536377
2018-11-05T01:13:32.414Z,13.546448
2018-11-05T01:13:52.325Z,13.546448
2018-11-05T01:14:12.430Z,13.546448
2018-11-05T01:14:32.416Z,13.566589
2018-11-05T01:14:52.212Z,13.566589
2018-11-05T01:15:12.150Z,13.566589
2018-11-05T01:15:32.141Z,13.586731
2018-11-05T01:15:52.898Z,13.586731
2018-11-05T01:16:12.661Z,13.596802
2018-11-05T01:16:32.367Z,13.586731
2018-11-05T01:16:52.133Z,13.566589
2018-11-05T01:17:12.002Z,13.566589
2018-11-05T01:17:31.673Z,13.536377
2018-11-05T01:17:51.457Z,13.536377
2018-11-05T01:18:11.338Z,13.516235
2018-11-05T01:18:30.981Z,13.536377
2018-11-05T01:18:50.779Z,13.566589
2018-11-05T01:19:11.501Z,13.546448
2018-11-05T01:19:31.219Z,13.546448
2018-11-05T01:19:52.120Z,13.546448
2018-11-05T01:20:12.239Z,13.536377
2018-11-05T01:20:32.174Z,13.516235
2018-11-05T01:20:51.900Z,13.475952
2018-11-05T01:21:11.501Z,13.486023
2018-11-05T01:21:31.368Z,13.475952
2018-11-05T01:21:51.086Z,13.44574
2018-11-05T01:22:11.892Z,13.405457
2018-11-05T01:22:31.868Z,13.435669
2018-11-05T01:22:51.573Z,13.415527
2018-11-05T01:23:11.366Z,13.435669
2018-11-05T01:23:30.889Z,13.435669
2018-11-05T01:23:50.642Z,13.475952
2018-11-05T01:24:10.664Z,13.455811
2018-11-05T01:24:30.770Z,13.486023
2018-11-05T01:24:50.756Z,13.475952
2018-11-05T01:25:10.481Z,13.486023
2018-11-05T01:25:30.486Z,13.506165
2018-11-05T01:25:50.598Z,13.536377
2018-11-05T01:26:10.652Z,13.536377
2018-11-05T01:26:30.574Z,13.546448
2018-11-05T01:26:50.447Z,13.546448
2018-11-05T01:27:10.324Z,13.546448
2018-11-05T01:27:30.123Z,13.516235
2018-11-05T01:27:49.995Z,13.546448
2018-11-05T01:28:10.654Z,13.566589
2018-11-05T01:28:30.182Z,13.566589
2018-11-05T01:28:49.908Z,13.536377
2018-11-05T01:29:09.797Z,13.566589
2018-11-05T01:29:29.497Z,13.566589
2018-11-05T01:29:49.150Z,13.546448
2018-11-05T01:30:09.602Z,13.546448
2018-11-05T01:30:29.403Z,13.516235
2018-11-05T01:30:48.941Z,13.516235
2018-11-05T01:31:08.528Z,13.536377
2018-11-05T01:31:28.093Z,13.546448
2018-11-05T01:31:47.788Z,13.516235
2018-11-05T01:32:07.350Z,13.455811
2018-11-05T01:32:26.961Z,13.435669
2018-11-05T01:32:46.563Z,13.44574
2018-11-05T01:33:06.129Z,13.455811
2018-11-05T01:33:27.170Z,13.455811
2018-11-05T01:33:47.894Z,13.455811
2018-11-05T01:34:07.561Z,13.455811
2018-11-05T01:34:27.123Z,13.506165
2018-11-05T01:34:46.860Z,13.516235
2018-11-05T01:35:06.472Z,13.506165
2018-11-05T01:35:25.986Z,13.516235
2018-11-05T01:35:45.652Z,13.536377
2018-11-05T01:36:05.211Z,13.546448
2018-11-05T01:36:24.762Z,13.566589
2018-11-05T01:36:44.348Z,13.586731
2018-11-05T01:37:03.916Z,13.616943
2018-11-05T01:37:25.488Z,13.616943
2018-11-05T01:37:45.068Z,13.616943
2018-11-05T01:38:04.674Z,13.596802
2018-11-05T01:38:24.278Z,13.627014
2018-11-05T01:38:43.929Z,13.616943
2018-11-05T01:39:03.506Z,13.627014
2018-11-05T01:39:24.194Z,13.596802
2018-11-05T01:39:43.860Z,13.566589
2018-11-05T01:40:03.388Z,13.536377
2018-11-05T01:40:23.140Z,13.546448
2018-11-05T01:40:42.770Z,13.566589
2018-11-05T01:41:02.355Z,13.586731
2018-11-05T01:41:21.927Z,13.536377
2018-11-05T01:41:41.538Z,13.536377
2018-11-05T01:42:01.135Z,13.506165
2018-11-05T01:42:20.692Z,13.475952
2018-11-05T01:42:40.296Z,13.475952
2018-11-05T01:42:59.884Z,13.455811
2018-11-05T01:43:19.515Z,13.455811
2018-11-05T01:43:39.026Z,13.506165
2018-11-05T01:43:58.732Z,13.506165
2018-11-05T01:44:18.393Z,13.516235
2018-11-05T01:44:38.151Z,13.506165
2018-11-05T01:44:57.777Z,13.536377
2018-11-05T01:45:17.288Z,13.506165
2018-11-05T01:45:36.834Z,13.536377
2018-11-05T01:45:56.473Z,13.506165
2018-11-05T01:46:16.060Z,13.536377
2018-11-05T01:46:35.675Z,13.506165
2018-11-05T01:46:55.240Z,13.516235
2018-11-05T01:47:14.996Z,13.546448
2018-11-05T01:47:34.706Z,13.546448
2018-11-05T01:47:54.212Z,13.546448
2018-11-05T01:48:13.792Z,13.536377
2018-11-05T01:48:33.492Z,13.536377
2018-11-05T01:48:53.289Z,13.546448
2018-11-05T01:49:12.991Z,13.506165
2018-11-05T01:49:32.603Z,13.506165
2018-11-05T01:49:52.218Z,13.506165
2018-11-05T01:50:12.053Z,13.506165
2018-11-05T01:50:31.635Z,13.506165
2018-11-05T01:50:51.369Z,13.475952
2018-11-05T01:51:11.158Z,13.44574
2018-11-05T01:51:30.945Z,13.455811
2018-11-05T01:51:50.579Z,13.475952
2018-11-05T01:52:10.358Z,13.486023
2018-11-05T01:52:29.973Z,13.475952
2018-11-05T01:52:49.532Z,13.435669
2018-11-05T01:53:09.131Z,13.415527
2018-11-05T01:53:28.729Z,13.435669
2018-11-05T01:53:48.261Z,13.385315
2018-11-05T01:54:07.863Z,13.415527
2018-11-05T01:54:28.486Z,13.435669
2018-11-05T01:54:48.042Z,13.435669
2018-11-05T01:55:07.600Z,13.44574
2018-11-05T01:55:27.509Z,13.455811
2018-11-05T01:55:49.202Z,13.486023
2018-11-05T01:56:08.842Z,13.475952
2018-11-05T01:56:28.463Z,13.455811
2018-11-05T01:56:48.093Z,13.506165
2018-11-05T01:57:07.662Z,13.486023
2018-11-05T01:57:27.348Z,13.486023
2018-11-05T01:57:46.888Z,13.486023
2018-11-05T01:58:06.428Z,13.536377
2018-11-05T01:58:26.087Z,13.506165
2018-11-05T01:58:46.644Z,13.455811
2018-11-05T01:59:06.204Z,13.455811
2018-11-05T01:59:25.824Z,13.44574
2018-11-05T01:59:45.516Z,13.415527
2018-11-05T02:00:05.095Z,13.435669
2018-11-05T02:00:24.660Z,13.44574
2018-11-05T02:00:44.279Z,13.506165
2018-11-05T02:01:03.863Z,13.516235
2018-11-05T02:01:24.466Z,13.516235
2018-11-05T02:01:44.047Z,13.546448
2018-11-05T02:02:03.675Z,13.586731
2018-11-05T02:02:23.360Z,13.536377
2018-11-05T02:02:42.916Z,13.566589
2018-11-05T02:03:02.557Z,13.566589
2018-11-05T02:03:22.190Z,13.596802
2018-11-05T02:03:41.784Z,13.627014
2018-11-05T02:04:01.402Z,13.616943
2018-11-05T02:04:22.069Z,13.566589
2018-11-05T02:04:41.711Z,13.586731
2018-11-05T02:05:01.373Z,13.566589
2018-11-05T02:05:20.967Z,13.566589
2018-11-05T02:05:40.624Z,13.566589
2018-11-05T02:06:00.261Z,13.596802
2018-11-05T02:06:19.812Z,13.586731
2018-11-05T02:06:39.350Z,13.586731
2018-11-05T02:06:58.934Z,13.586731
2018-11-05T02:07:18.547Z,13.616943
2018-11-05T02:07:38.416Z,13.627014
2018-11-05T02:07:58.057Z,13.596802
2018-11-05T02:08:17.800Z,13.616943
2018-11-05T02:08:37.368Z,13.616943
2018-11-05T02:08:56.962Z,13.627014
2018-11-05T02:09:16.503Z,13.637085
2018-11-05T02:09:40.590Z,13.637085
2018-11-05T02:10:04.693Z,13.657227
2018-11-05T02:10:24.346Z,13.627014
2018-11-05T02:10:43.942Z,13.627014
2018-11-05T02:11:03.622Z,13.596802
2018-11-05T02:11:24.434Z,13.627014
2018-11-05T02:11:48.289Z,13.627014
2018-11-05T02:12:12.274Z,13.637085
2018-11-05T02:12:32.686Z,13.616943
2018-11-05T02:12:56.035Z,13.637085
2018-11-05T02:13:15.723Z,13.627014
2018-11-05T02:13:44.157Z,13.637085
2018-11-05T02:14:25.503Z,13.596802
2018-11-05T02:14:50.334Z,13.637085
2018-11-05T02:15:17.283Z,13.627014
2018-11-05T02:15:55.877Z,13.616943
2018-11-05T02:16:22.521Z,13.596802
2018-11-05T02:16:43.979Z,13.616943
2018-11-05T02:17:03.532Z,13.627014
2018-11-05T02:17:23.087Z,13.627014
2018-11-05T02:17:42.657Z,13.596802
2018-11-05T02:18:02.253Z,13.596802
2018-11-05T02:18:21.827Z,13.596802
2018-11-05T02:18:41.425Z,13.596802
2018-11-05T02:19:00.991Z,13.586731
2018-11-05T02:19:20.551Z,13.596802
2018-11-05T02:19:40.169Z,13.616943
2018-11-05T02:19:59.757Z,13.616943
2018-11-05T02:20:19.304Z,13.566589
2018-11-05T02:20:38.976Z,13.566589
2018-11-05T02:20:59.537Z,13.566589
2018-11-05T02:21:19.084Z,13.586731
2018-11-05T02:21:38.632Z,13.596802
2018-11-05T02:21:58.298Z,13.616943
2018-11-05T02:22:17.879Z,13.616943
2018-11-05T02:22:37.459Z,13.627014
2018-11-05T02:22:57.039Z,13.616943
2018-11-05T02:23:16.587Z,13.637085
2018-11-05T02:23:36.205Z,13.627014
2018-11-05T02:23:55.817Z,13.627014
2018-11-05T02:24:15.471Z,13.627014
2018-11-05T02:24:35.017Z,13.616943
2018-11-05T02:24:54.761Z,13.596802
2018-11-05T02:25:14.396Z,13.596802
2018-11-05T02:25:33.924Z,13.596802
2018-11-05T02:25:53.486Z,13.616943
2018-11-05T02:26:13.078Z,13.616943
2018-11-05T02:26:32.701Z,13.596802
2018-11-05T02:26:52.265Z,13.596802
2018-11-05T02:27:11.937Z,13.586731
2018-11-05T02:27:31.455Z,13.596802
2018-11-05T02:27:51.092Z,13.596802
2018-11-05T02:28:10.717Z,13.616943
2018-11-05T02:28:30.328Z,13.616943
2018-11-05T02:28:49.896Z,13.596802
2018-11-05T02:29:09.425Z,13.586731
2018-11-05T02:29:29.021Z,13.586731
2018-11-05T02:29:48.571Z,13.616943
2018-11-05T02:30:08.168Z,13.616943
2018-11-05T02:30:27.748Z,13.596802
2018-11-05T02:30:47.353Z,13.616943
2018-11-05T02:31:06.954Z,13.616943
2018-11-05T02:31:26.555Z,13.596802
2018-11-05T02:31:46.188Z,13.596802
2018-11-05T02:32:05.721Z,13.616943
2018-11-05T02:32:25.343Z,13.596802
2018-11-05T02:32:44.906Z,13.616943
2018-11-05T02:33:05.438Z,13.596802
2018-11-05T02:33:24.996Z,13.586731
2018-11-05T02:33:44.589Z,13.616943
2018-11-05T02:34:04.337Z,13.586731
2018-11-05T02:34:23.985Z,13.596802
2018-11-05T02:34:43.861Z,13.546448
2018-11-05T02:35:03.448Z,13.586731
2018-11-05T02:35:23.015Z,13.566589
2018-11-05T02:35:42.699Z,13.546448
2018-11-05T02:36:02.349Z,13.566589
2018-11-05T02:36:21.983Z,13.566589
2018-11-05T02:36:41.612Z,13.566589
2018-11-05T02:37:01.220Z,13.546448
2018-11-05T02:37:20.815Z,13.536377
2018-11-05T02:37:40.329Z,13.546448
2018-11-05T02:37:59.923Z,13.486023
2018-11-05T02:38:19.537Z,13.516235
2018-11-05T02:38:39.138Z,13.506165
2018-11-05T02:38:58.837Z,13.536377
2018-11-05T02:39:18.382Z,13.566589
2018-11-05T02:39:37.968Z,13.586731
2018-11-05T02:39:57.595Z,13.596802
2018-11-05T02:40:17.497Z,13.616943
2018-11-05T02:40:37.254Z,13.596802
2018-11-05T02:40:56.781Z,13.627014
2018-11-05T02:41:16.484Z,13.596802
2018-11-05T02:41:38.299Z,13.616943
2018-11-05T02:41:57.847Z,13.627014
2018-11-05T02:42:17.511Z,13.667297
2018-11-05T02:42:37.233Z,13.657227
2018-11-05T02:42:56.780Z,13.657227
2018-11-05T02:43:16.416Z,13.667297
2018-11-05T02:43:36.997Z,13.657227
2018-11-05T02:43:56.597Z,13.657227
2018-11-05T02:44:16.145Z,13.657227
2018-11-05T02:44:35.750Z,13.657227
2018-11-05T02:44:55.338Z,13.657227
2018-11-05T02:45:14.975Z,13.657227
2018-11-05T02:45:34.573Z,13.657227
2018-11-05T02:45:54.203Z,13.627014
2018-11-05T02:46:13.852Z,13.627014
2018-11-05T02:46:33.432Z,13.616943
2018-11-05T02:46:53.191Z,13.627014
2018-11-05T02:47:12.740Z,13.627014
2018-11-05T02:47:32.320Z,13.637085
2018-11-05T02:47:51.932Z,13.657227
2018-11-05T02:48:11.414Z,13.637085
2018-11-05T02:48:31.053Z,13.637085
2018-11-05T02:48:50.684Z,13.657227
2018-11-05T02:49:10.184Z,13.667297
2018-11-05T02:49:29.757Z,13.667297
2018-11-05T02:49:49.314Z,13.637085
2018-11-05T02:50:08.847Z,13.616943
2018-11-05T02:50:28.472Z,13.586731
2018-11-05T02:50:48.078Z,13.586731
2018-11-05T02:51:07.603Z,13.566589
2018-11-05T02:51:27.160Z,13.586731
2018-11-05T02:51:46.703Z,13.586731
2018-11-05T02:52:06.311Z,13.596802
2018-11-05T02:52:25.909Z,13.586731
2018-11-05T02:52:45.531Z,13.586731
2018-11-05T02:53:05.054Z,13.596802
2018-11-05T02:53:24.602Z,13.616943
2018-11-05T02:53:44.183Z,13.596802
2018-11-05T02:54:03.783Z,13.616943
2018-11-05T02:54:23.357Z,13.596802
2018-11-05T02:54:42.936Z,13.586731
2018-11-05T02:55:02.502Z,13.586731
2018-11-05T02:55:22.054Z,13.586731
2018-11-05T02:55:42.664Z,13.546448
2018-11-05T02:56:02.239Z,13.566589
2018-11-05T02:56:21.817Z,13.536377
2018-11-05T02:56:41.354Z,13.546448
2018-11-05T02:57:00.943Z,13.586731
2018-11-05T02:57:21.536Z,13.586731
2018-11-05T02:57:42.063Z,13.566589
2018-11-05T02:58:01.657Z,13.566589
2018-11-05T02:58:21.209Z,13.566589
2018-11-05T02:58:41.919Z,13.546448
2018-11-05T02:59:01.509Z,13.586731
2018-11-05T02:59:21.067Z,13.616943
2018-11-05T02:59:40.613Z,13.616943
2018-11-05T03:00:00.215Z,13.637085
2018-11-05T03:00:19.810Z,13.616943
2018-11-05T03:00:39.476Z,13.667297
2018-11-05T03:00:59.089Z,13.637085
2018-11-05T03:01:18.730Z,13.667297
2018-11-05T03:01:38.259Z,13.687439
2018-11-05T03:01:57.886Z,13.667297
2018-11-05T03:02:17.511Z,13.637085
2018-11-05T03:02:37.074Z,13.637085
2018-11-05T03:02:56.726Z,13.637085
2018-11-05T03:03:16.288Z,13.637085
2018-11-05T03:03:35.838Z,13.616943
2018-11-05T03:03:55.399Z,13.627014
2018-11-05T03:04:15.011Z,13.616943
2018-11-05T03:04:34.660Z,13.586731
2018-11-05T03:04:54.245Z,13.616943
2018-11-05T03:05:13.899Z,13.627014
2018-11-05T03:05:33.515Z,13.637085
2018-11-05T03:05:55.374Z,13.637085
2018-11-05T03:06:14.957Z,13.637085
2018-11-05T03:06:34.495Z,13.637085
2018-11-05T03:06:54.063Z,13.637085
2018-11-05T03:07:13.675Z,13.637085
2018-11-05T03:07:33.235Z,13.637085
2018-11-05T03:07:52.901Z,13.657227
2018-11-05T03:08:12.541Z,13.657227
2018-11-05T03:08:32.203Z,13.637085
2018-11-05T03:08:51.807Z,13.637085
2018-11-05T03:09:12.819Z,13.657227
2018-11-05T03:09:32.382Z,13.667297
2018-11-05T03:09:52.090Z,13.69751
2018-11-05T03:10:11.765Z,13.687439
2018-11-05T03:10:31.430Z,13.657227
2018-11-05T03:10:51.225Z,13.657227
2018-11-05T03:11:10.824Z,13.657227
2018-11-05T03:11:30.366Z,13.667297
2018-11-05T03:11:49.980Z,13.657227
2018-11-05T03:12:09.576Z,13.667297
2018-11-05T03:12:29.339Z,13.667297
2018-11-05T03:12:48.893Z,13.667297
2018-11-05T03:13:08.461Z,13.687439
2018-11-05T03:13:28.013Z,13.687439
2018-11-05T03:13:47.668Z,13.69751
2018-11-05T03:14:07.233Z,13.687439
2018-11-05T03:14:26.870Z,13.747864
2018-11-05T03:14:46.548Z,13.69751
2018-11-05T03:15:07.268Z,13.707581
2018-11-05T03:15:26.930Z,13.707581
2018-11-05T03:15:46.485Z,13.727722
2018-11-05T03:16:06.168Z,13.727722
2018-11-05T03:16:25.939Z,13.727722
2018-11-05T03:16:45.652Z,13.747864
2018-11-05T03:17:05.174Z,13.768005
2018-11-05T03:17:24.895Z,13.727722
2018-11-05T03:17:44.471Z,13.747864
2018-11-05T03:18:04.136Z,13.747864
2018-11-05T03:18:23.706Z,13.778076
2018-11-05T03:18:43.286Z,13.778076
2018-11-05T03:19:02.826Z,13.778076
2018-11-05T03:19:22.389Z,13.778076
2018-11-05T03:19:41.943Z,13.788147
2018-11-05T03:20:01.516Z,13.808289
2018-11-05T03:20:22.185Z,13.788147
2018-11-05T03:20:46.246Z,13.768005
2018-11-05T03:21:08.501Z,13.788147
2018-11-05T03:21:29.149Z,13.808289
2018-11-05T03:21:48.714Z,13.818359
2018-11-05T03:22:08.369Z,13.818359
2018-11-05T03:22:28.022Z,13.848572
2018-11-05T03:22:47.700Z,13.818359
2018-11-05T03:23:07.289Z,13.848572
2018-11-05T03:23:26.893Z,13.838501
2018-11-05T03:23:46.435Z,13.838501
2018-11-05T03:24:06.039Z,13.868713
2018-11-05T03:24:25.632Z,13.848572
2018-11-05T03:24:45.288Z,13.838501
2018-11-05T03:25:04.856Z,13.868713
2018-11-05T03:25:24.460Z,13.868713
2018-11-05T03:25:44.013Z,13.878784
2018-11-05T03:26:05.636Z,13.888855
2018-11-05T03:26:25.221Z,13.919067
2018-11-05T03:26:44.845Z,13.868713
2018-11-05T03:27:04.428Z,13.878784
2018-11-05T03:27:23.979Z,13.848572
2018-11-05T03:27:43.587Z,13.878784
2018-11-05T03:28:05.502Z,13.878784
2018-11-05T03:28:25.113Z,13.878784
2018-11-05T03:28:44.671Z,13.888855
2018-11-05T03:29:04.237Z,13.888855
2018-11-05T03:29:23.789Z,13.888855
2018-11-05T03:29:43.422Z,13.908997
2018-11-05T03:30:03.014Z,13.908997
2018-11-05T03:30:22.590Z,13.94928
2018-11-05T03:30:43.166Z,13.94928
2018-11-05T03:31:02.797Z,13.94928
2018-11-05T03:31:22.367Z,13.959351
2018-11-05T03:31:41.984Z,13.969421
2018-11-05T03:32:01.629Z,13.959351
2018-11-05T03:32:21.282Z,13.959351
2018-11-05T03:32:40.888Z,13.959351
2018-11-05T03:33:00.454Z,13.919067
2018-11-05T03:33:20.050Z,13.94928
2018-11-05T03:33:39.575Z,13.919067
2018-11-05T03:33:59.177Z,13.908997
2018-11-05T03:34:18.846Z,13.94928
2018-11-05T03:34:38.408Z,13.919067
2018-11-05T03:34:58.038Z,13.94928
2018-11-05T03:35:17.976Z,13.919067
2018-11-05T03:35:37.659Z,13.959351
2018-11-05T03:35:57.341Z,13.959351
2018-11-05T03:36:16.854Z,13.94928
2018-11-05T03:36:36.454Z,13.969421
2018-11-05T03:36:56.041Z,13.989563
2018-11-05T03:37:15.713Z,13.989563
2018-11-05T03:37:35.344Z,13.989563
2018-11-05T03:37:54.935Z,13.989563
2018-11-05T03:38:14.624Z,13.989563
2018-11-05T03:38:34.245Z,13.999634
2018-11-05T03:38:53.868Z,13.999634
2018-11-05T03:39:13.464Z,13.999634
2018-11-05T03:39:33.080Z,13.999634
2018-11-05T03:39:52.699Z,13.999634
2018-11-05T03:40:12.360Z,13.999634
2018-11-05T03:40:32.035Z,13.999634
2018-11-05T03:40:51.695Z,14.029846
2018-11-05T03:41:11.459Z,13.999634
2018-11-05T03:41:31.004Z,14.019775
2018-11-05T03:41:50.573Z,14.019775
2018-11-05T03:42:10.204Z,14.019775
2018-11-05T03:42:29.818Z,14.019775
2018-11-05T03:42:49.372Z,13.999634
2018-11-05T03:43:09.043Z,13.999634
2018-11-05T03:43:28.665Z,14.019775
2018-11-05T03:43:48.229Z,14.019775
2018-11-05T03:44:08.792Z,14.019775
2018-11-05T03:44:28.380Z,13.999634
2018-11-05T03:44:48.003Z,13.999634
2018-11-05T03:45:07.660Z,14.029846
2018-11-05T03:45:27.283Z,13.999634
2018-11-05T03:45:46.909Z,13.999634
2018-11-05T03:46:06.471Z,14.029846
2018-11-05T03:46:26.128Z,13.999634
2018-11-05T03:46:45.750Z,14.019775
2018-11-05T03:47:05.313Z,13.999634
2018-11-05T03:47:24.909Z,14.019775